Time;durP1;ratioP1;P1;durP2;ratioP2;P2;SDS_P1;SDS_P2;PMS_P1;PMS_P2;Temp;Humidity;BMP_temperature;BMP_pressure;BME280_temperature;BME280_humidity;BME280_pressure;Samples;Min_cycle;Max_cycle;Signal;HPM_P1;HPM_P2
2023/07/20 00:01:08;;;;;;;24.67;22.80;;;16.50;99.90;;;;;;5069477;28;20067;-61
2023/07/20 00:03:33;;;;;;;23.73;22.00;;;16.40;99.90;;;;;;5066669;28;20120;-61
2023/07/20 00:05:59;;;;;;;21.02;19.52;;;16.50;99.90;;;;;;5070958;28;20642;-61
2023/07/20 00:08:24;;;;;;;24.30;22.33;;;16.50;99.90;;;;;;5068174;28;20119;-61
2023/07/20 00:10:50;;;;;;;17.50;16.23;;;16.40;99.90;;;;;;5049794;28;20037;-61
2023/07/20 00:13:18;;;;;;;17.75;16.40;;;16.50;99.90;;;;;;5065663;28;20044;-61
2023/07/20 00:15:44;;;;;;;19.05;17.67;;;16.40;70.30;;;;;;5065449;28;20040;-61
2023/07/20 00:18:09;;;;;;;22.10;20.42;;;16.40;6.40;;;;;;5069114;28;20517;-61
2023/07/20 00:20:35;;;;;;;20.40;18.80;;;16.50;1.00;;;;;;5068199;28;20468;-62
2023/07/20 00:23:00;;;;;;;21.63;19.92;;;16.40;1.00;;;;;;5069541;28;20037;-61
2023/07/20 00:25:26;;;;;;;21.23;19.50;;;16.40;1.00;;;;;;5047079;28;20455;-61
2023/07/20 00:27:55;;;;;;;20.45;19.05;;;16.40;1.00;;;;;;5062696;28;20043;-61
2023/07/20 00:30:20;;;;;;;22.35;20.65;;;16.40;1.00;;;;;;5064704;28;20099;-61
2023/07/20 00:32:46;;;;;;;22.70;20.80;;;16.40;1.00;;;;;;5065129;28;20037;-61
2023/07/20 00:35:12;;;;;;;23.38;21.65;;;16.50;1.00;;;;;;5068490;28;20167;-61
2023/07/20 00:37:38;;;;;;;23.05;21.30;;;16.50;1.00;;;;;;5066837;28;20402;-61
2023/07/20 00:40:04;;;;;;;22.60;21.00;;;16.40;1.00;;;;;;5069163;28;20040;-61
2023/07/20 00:42:30;;;;;;;18.88;17.58;;;16.30;1.00;;;;;;5049922;28;20036;-61
2023/07/20 00:44:56;;;;;;;20.08;18.58;;;16.40;1.00;;;;;;5066039;28;20075;-61
2023/07/20 00:47:22;;;;;;;21.33;19.73;;;16.40;1.00;;;;;;5063329;28;20033;-61
2023/07/20 00:49:48;;;;;;;22.70;21.10;;;16.30;1.00;;;;;;5066813;28;20043;-61
2023/07/20 00:52:14;;;;;;;22.63;20.92;;;16.40;1.00;;;;;;5050186;28;20142;-61
2023/07/20 00:54:41;;;;;;;20.92;19.27;;;16.40;99.90;;;;;;5065864;28;20464;-61
2023/07/20 00:57:07;;;;;;;25.35;23.35;;;16.30;99.90;;;;;;5060777;28;20167;-61
2023/07/20 00:59:34;;;;;;;23.70;21.90;;;16.40;99.90;;;;;;5068854;28;20103;-61
2023/07/20 01:02:00;;;;;;;25.92;23.77;;;16.30;99.90;;;;;;5065535;28;20045;-61
2023/07/20 01:04:27;;;;;;;21.88;20.27;;;16.30;99.90;;;;;;5064671;28;20606;-61
2023/07/20 01:07:14;;;;;;;23.05;21.45;;;16.30;1.00;;;;;;5069808;28;20086;-61
2023/07/20 01:09:42;;;;;;;;;;;16.40;1.00;;;;;;5068064;28;20406;-61
2023/07/20 01:12:12;;;;;;;28.33;25.92;;;16.40;1.00;;;;;;5065316;28;19924;-61
2023/07/20 01:14:38;;;;;;;29.60;27.30;;;16.40;1.00;;;;;;5069188;28;20048;-61
2023/07/20 01:17:04;;;;;;;28.42;26.00;;;16.30;1.00;;;;;;5064551;28;20365;-61
2023/07/20 01:19:30;;;;;;;26.23;24.02;;;16.10;1.00;;;;;;5070232;28;20103;-61
2023/07/20 01:22:25;;;;;;;22.17;20.13;;;16.10;1.00;;;;;;5068949;28;20132;-61
2023/07/20 01:25:21;;;;;;;26.85;24.65;;;16.20;1.00;;;;;;5064629;28;20049;-61
2023/07/20 01:28:21;;;;;;;29.27;26.85;;;16.10;1.00;;;;;;5043113;28;20043;-61
2023/07/20 01:30:55;;;;;;;27.40;25.30;;;16.20;1.00;;;;;;5068877;28;20090;-61
2023/07/20 01:33:23;;;;;;;25.13;23.23;;;16.10;1.00;;;;;;5064309;28;20040;-61
2023/07/20 01:35:56;;;;;;;22.40;20.73;;;16.20;1.00;;;;;;5071004;28;20052;-61
2023/07/20 01:38:23;;;;;;;25.23;23.33;;;16.20;1.00;;;;;;5054007;28;20399;-61
2023/07/20 01:40:50;;;;;;;24.65;22.65;;;16.30;1.00;;;;;;5072042;28;20040;-61
2023/07/20 01:43:16;;;;;;;25.60;23.58;;;16.30;1.00;;;;;;5070773;28;20097;-61
2023/07/20 01:45:41;;;;;;;25.63;23.50;;;16.50;1.00;;;;;;5071776;28;20503;-62
2023/07/20 01:48:07;;;;;;;26.70;24.35;;;16.30;1.00;;;;;;5070207;28;20536;-61
2023/07/20 01:50:34;;;;;;;28.63;26.23;;;16.40;1.00;;;;;;5071908;28;20040;-61
2023/07/20 01:53:00;;;;;;;28.00;25.63;;;16.20;1.00;;;;;;5068723;28;20048;-61
2023/07/20 01:55:26;;;;;;;29.17;26.40;;;16.30;1.00;;;;;;5046424;28;20510;-61
2023/07/20 01:57:51;;;;;;;29.33;26.63;;;16.20;1.00;;;;;;5067863;28;20040;-61
2023/07/20 02:00:21;;;;;;;26.58;24.48;;;16.20;1.00;;;;;;5066659;28;20056;-61
2023/07/20 02:02:47;;;;;;;28.25;25.83;;;16.20;1.00;;;;;;5068066;28;20102;-61
2023/07/20 02:05:12;;;;;;;25.00;23.02;;;16.30;1.00;;;;;;5071122;28;20032;-62
2023/07/20 02:07:39;;;;;;;23.23;21.42;;;16.20;1.00;;;;;;5071088;28;20486;-61
2023/07/20 02:10:05;;;;;;;28.50;26.38;;;16.30;7.20;;;;;;5071254;28;20050;-61
2023/07/20 02:12:31;;;;;;;22.98;21.20;;;16.30;7.70;;;;;;5069085;28;20131;-61
2023/07/20 02:14:56;;;;;;;23.67;21.88;;;16.30;2.50;;;;;;5071944;28;20159;-61
2023/07/20 02:17:22;;;;;;;24.83;22.85;;;16.30;2.20;;;;;;5070963;28;20044;-61
2023/07/20 02:19:52;;;;;;;25.23;23.08;;;16.40;3.80;;;;;;5071658;28;20044;-61
2023/07/20 02:22:17;;;;;;;27.55;25.42;;;16.30;1.00;;;;;;5069970;28;20029;-62
2023/07/20 02:24:43;;;;;;;27.08;24.67;;;16.30;1.00;;;;;;5072199;28;20041;-61
2023/07/20 02:27:09;;;;;;;29.45;26.77;;;16.30;1.00;;;;;;5070070;28;20115;-61
2023/07/20 02:29:35;;;;;;;27.58;25.38;;;16.60;1.00;;;;;;5071086;28;20029;-61
2023/07/20 02:32:01;;;;;;;27.75;25.52;;;16.20;15.50;;;;;;5066506;28;20476;-61
2023/07/20 02:34:27;;;;;;;23.83;21.83;;;16.30;41.50;;;;;;5070455;28;20083;-62
2023/07/20 02:36:52;;;;;;;25.20;22.67;;;16.20;58.80;;;;;;5066340;28;20388;-61
2023/07/20 02:39:18;;;;;;;25.10;23.20;;;16.30;74.40;;;;;;5078185;28;20040;-61
2023/07/20 02:41:43;;;;;;;27.95;25.85;;;16.30;72.40;;;;;;5069795;28;20040;-62
2023/07/20 02:44:09;;;;;;;27.90;25.45;;;16.50;64.50;;;;;;5070442;28;20086;-61
2023/07/20 02:46:35;;;;;;;26.17;24.17;;;16.30;52.10;;;;;;5068809;28;20040;-61
2023/07/20 02:49:01;;;;;;;24.88;22.80;;;16.30;29.50;;;;;;5033527;28;20040;-62
2023/07/20 02:51:26;;;;;;;26.13;23.80;;;16.30;6.80;;;;;;5067307;28;20045;-61
2023/07/20 02:53:52;;;;;;;20.20;18.80;;;16.30;1.00;;;;;;5066959;28;20040;-61
2023/07/20 02:56:18;;;;;;;22.17;20.58;;;16.30;1.00;;;;;;5066241;28;20044;-61
2023/07/20 02:58:43;;;;;;;21.10;19.50;;;16.20;1.00;;;;;;5069831;28;20051;-62
2023/07/20 03:01:10;;;;;;;26.92;24.70;;;15.40;1.00;;;;;;5048405;28;20125;-62
2023/07/20 03:03:38;;;;;;;25.20;23.30;;;16.30;1.00;;;;;;5067129;28;20048;-62
2023/07/20 03:06:05;;;;;;;30.10;27.17;;;16.20;1.00;;;;;;5070639;28;20051;-61
2023/07/20 03:08:30;;;;;;;29.70;26.90;;;16.10;1.00;;;;;;5052680;28;20115;-62
2023/07/20 03:10:56;;;;;;;27.92;25.75;;;16.00;1.00;;;;;;5070237;28;20174;-61
2023/07/20 03:13:22;;;;;;;25.90;24.08;;;16.00;1.00;;;;;;5062303;28;20036;-61
2023/07/20 03:15:47;;;;;;;29.95;27.05;;;16.00;1.00;;;;;;5069519;28;20044;-62
2023/07/20 03:18:13;;;;;;;30.98;28.23;;;16.10;29.30;;;;;;5052543;28;20051;-62
2023/07/20 03:20:38;;;;;;;30.45;28.02;;;15.90;68.70;;;;;;5052341;28;20053;-61
2023/07/20 03:23:04;;;;;;;29.10;26.60;;;15.70;99.90;;;;;;5065896;28;20044;-61
2023/07/20 03:25:30;;;;;;;28.88;26.58;;;15.90;99.90;;;;;;5066120;28;20039;-61
2023/07/20 03:27:55;;;;;;;28.60;26.27;;;15.90;99.90;;;;;;5066469;28;20120;-62
2023/07/20 03:30:21;;;;;;;28.98;26.58;;;15.90;99.90;;;;;;5068533;28;20029;-61
2023/07/20 03:32:46;;;;;;;30.42;27.67;;;16.00;99.90;;;;;;5066069;28;20037;-61
2023/07/20 03:35:12;;;;;;;30.35;27.58;;;16.00;99.90;;;;;;5070400;28;20423;-61
2023/07/20 03:37:38;;;;;;;29.80;27.38;;;16.00;1.00;;;;;;5064420;28;20040;-62
2023/07/20 03:40:04;;;;;;;29.67;27.15;;;16.10;1.00;;;;;;5070485;28;20041;-62
2023/07/20 03:42:30;;;;;;;31.75;28.80;;;16.20;1.00;;;;;;5064486;28;20084;-62
2023/07/20 03:44:56;;;;;;;32.50;29.63;;;16.10;10.80;;;;;;5064737;28;20086;-62
2023/07/20 03:47:22;;;;;;;32.22;29.73;;;16.10;67.20;;;;;;5066956;28;20414;-62
2023/07/20 03:49:47;;;;;;;34.95;32.15;;;16.30;99.90;;;;;;5070027;28;20559;-62
2023/07/20 03:52:13;;;;;;;34.00;31.13;;;16.30;99.90;;;;;;5067838;28;20135;-62
2023/07/20 03:54:38;;;;;;;33.53;30.73;;;16.30;99.90;;;;;;5069799;28;20068;-62
2023/07/20 03:57:04;;;;;;;33.65;30.95;;;16.30;99.90;;;;;;5062293;28;20102;-62
2023/07/20 03:59:30;;;;;;;31.85;29.38;;;16.40;1.00;;;;;;5069278;28;20072;-62
2023/07/20 04:01:55;;;;;;;30.83;28.35;;;16.50;1.00;;;;;;5067544;28;20498;-62
2023/07/20 04:04:21;;;;;;;31.90;29.23;;;16.50;1.00;;;;;;5061463;28;20044;-62
2023/07/20 04:06:46;;;;;;;30.02;27.60;;;16.60;1.00;;;;;;5065958;28;20119;-62
2023/07/20 04:09:12;;;;;;;28.27;25.88;;;17.00;1.00;;;;;;5069143;28;20123;-62
2023/07/20 04:11:38;;;;;;;30.88;28.38;;;16.60;99.90;;;;;;5061045;28;20051;-62
2023/07/20 04:14:04;;;;;;;31.05;28.75;;;16.60;99.90;;;;;;5068495;28;20600;-62
2023/07/20 04:16:30;;;;;;;28.33;26.23;;;16.60;99.90;;;;;;5065608;28;20071;-62
2023/07/20 04:18:56;;;;;;;25.83;23.83;;;16.50;99.90;;;;;;5060908;28;20158;-61
2023/07/20 04:21:22;;;;;;;30.65;28.05;;;16.50;99.90;;;;;;5069440;28;20112;-61
2023/07/20 04:23:47;;;;;;;28.10;25.90;;;16.70;99.90;;;;;;5068582;28;20123;-61
2023/07/20 04:26:14;;;;;;;33.65;30.27;;;16.70;99.90;;;;;;5068123;28;20089;-61
2023/07/20 04:28:42;;;;;;;32.50;29.48;;;16.70;99.90;;;;;;5062061;28;20045;-61
2023/07/20 04:31:14;;;;;;;31.55;29.05;;;16.60;99.90;;;;;;5068723;28;20044;-61
2023/07/20 04:33:40;;;;;;;32.72;30.02;;;16.60;99.90;;;;;;5067778;28;20071;-61
2023/07/20 04:36:07;;;;;;;32.17;29.67;;;16.60;99.90;;;;;;5062049;28;20037;-61
2023/07/20 04:38:33;;;;;;;28.08;25.70;;;16.70;99.90;;;;;;5047249;28;20055;-61
2023/07/20 04:40:58;;;;;;;25.75;23.83;;;16.80;99.90;;;;;;5064901;28;20410;-59
2023/07/20 04:43:24;;;;;;;26.70;24.65;;;16.90;99.90;;;;;;5064494;28;20044;-59
2023/07/20 04:45:50;;;;;;;25.55;23.38;;;17.00;99.90;;;;;;5060895;28;20770;-59
2023/07/20 04:48:17;;;;;;;23.42;21.73;;;17.00;99.90;;;;;;5066534;28;20033;-59
2023/07/20 04:50:44;;;;;;;24.13;22.25;;;17.20;99.90;;;;;;5065800;28;20165;-59
2023/07/20 04:53:10;;;;;;;22.13;20.63;;;17.10;3.60;;;;;;5068383;28;20094;-58
2023/07/20 04:55:38;;;;;;;16.83;15.52;;;17.70;1.00;;;;;;5063009;28;20044;-58
2023/07/20 04:58:04;;;;;;;20.92;19.05;;;17.20;99.90;;;;;;5062390;28;20454;-59
2023/07/20 05:00:30;;;;;;;19.15;17.65;;;17.30;99.90;;;;;;5041766;28;20483;-59
2023/07/20 05:02:56;;;;;;;21.13;19.48;;;17.40;99.90;;;;;;5063743;28;20052;-59
2023/07/20 05:05:21;;;;;;;23.15;21.45;;;17.40;99.90;;;;;;5068288;28;20383;-59
2023/07/20 05:07:47;;;;;;;25.30;23.30;;;17.40;99.90;;;;;;5070107;28;20436;-59
2023/07/20 05:10:13;;;;;;;24.80;23.00;;;17.50;99.90;;;;;;5068441;28;20056;-59
2023/07/20 05:12:38;;;;;;;24.25;22.15;;;17.40;99.90;;;;;;5064180;28;20075;-59
2023/07/20 05:15:04;;;;;;;26.42;24.48;;;17.60;99.90;;;;;;5066380;28;20044;-59
2023/07/20 05:17:30;;;;;;;26.55;24.45;;;17.60;99.90;;;;;;5067725;28;20452;-59
2023/07/20 05:19:56;;;;;;;26.63;24.65;;;17.60;99.90;;;;;;5066142;28;20056;-59
2023/07/20 05:22:21;;;;;;;28.02;25.75;;;17.70;99.90;;;;;;5067771;28;20394;-58
2023/07/20 05:24:47;;;;;;;27.02;24.90;;;17.70;99.90;;;;;;5069806;28;20040;-59
2023/07/20 05:27:13;;;;;;;25.63;23.73;;;17.60;99.90;;;;;;5069015;28;20039;-59
2023/07/20 05:29:46;;;;;;;25.40;23.33;;;17.70;99.90;;;;;;5065796;28;20039;-58
2023/07/20 05:32:12;;;;;;;25.52;23.33;;;17.60;96.90;;;;;;5065852;28;20033;-58
2023/07/20 05:34:38;;;;;;;26.88;24.67;;;17.70;91.70;;;;;;5065016;28;20040;-59
2023/07/20 05:37:04;;;;;;;21.98;20.17;;;17.70;87.70;;;;;;5069107;28;20048;-58
2023/07/20 05:39:31;;;;;;;21.08;19.58;;;17.80;30.70;;;;;;5048870;28;20543;-58
2023/07/20 05:41:57;;;;;;;21.88;20.20;;;17.90;1.00;;;;;;5063937;28;20032;-58
2023/07/20 05:44:22;;;;;;;17.60;16.27;;;18.00;1.00;;;;;;5064291;28;20465;-58
2023/07/20 05:46:48;;;;;;;18.83;17.20;;;17.90;1.00;;;;;;5070824;28;20521;-58
2023/07/20 05:49:14;;;;;;;13.05;11.95;;;18.00;1.00;;;;;;5071923;28;20033;-58
2023/07/20 05:51:39;;;;;;;13.85;12.80;;;18.00;99.90;;;;;;5067671;28;20651;-58
2023/07/20 05:54:05;;;;;;;13.65;12.65;;;18.00;99.90;;;;;;5062640;28;20080;-58
2023/07/20 05:56:31;;;;;;;14.95;13.65;;;18.00;99.90;;;;;;5062950;28;20045;-58
2023/07/20 05:58:56;;;;;;;14.07;12.90;;;18.00;99.90;;;;;;5064964;28;20529;-58
2023/07/20 06:01:22;;;;;;;10.93;10.00;;;18.10;99.90;;;;;;5070686;28;20098;-58
2023/07/20 06:03:47;;;;;;;10.20;9.30;;;18.10;99.90;;;;;;5065812;28;20047;-58
2023/07/20 06:06:14;;;;;;;7.57;6.97;;;18.10;57.00;;;;;;5066784;28;20474;-58
2023/07/20 06:08:40;;;;;;;10.07;9.27;;;18.10;1.00;;;;;;5066116;28;20036;-58
2023/07/20 06:11:06;;;;;;;8.88;8.07;;;18.20;1.00;;;;;;5067864;28;20437;-58
2023/07/20 06:13:31;;;;;;;8.23;7.35;;;18.30;1.00;;;;;;5068686;28;20029;-59
2023/07/20 06:15:57;;;;;;;8.05;6.82;;;18.30;1.00;;;;;;5064913;28;20096;-59
2023/07/20 06:18:23;;;;;;;11.07;10.18;;;18.40;1.00;;;;;;5057485;28;20085;-57
2023/07/20 06:20:50;;;;;;;9.02;8.10;;;18.40;1.00;;;;;;5065346;28;20068;-57
2023/07/20 06:23:16;;;;;;;6.80;6.05;;;18.40;1.00;;;;;;5063563;28;20090;-60
2023/07/20 06:25:42;;;;;;;7.53;6.82;;;18.50;99.90;;;;;;5064189;28;20036;-58
2023/07/20 06:28:08;;;;;;;8.60;7.72;;;18.50;99.90;;;;;;5066466;28;20513;-57
2023/07/20 06:30:34;;;;;;;7.72;7.00;;;18.50;99.90;;;;;;5066895;28;20371;-63
2023/07/20 06:33:00;;;;;;;8.85;6.88;;;18.50;99.90;;;;;;5049500;28;20044;-58
2023/07/20 06:35:28;;;;;;;7.63;6.90;;;18.60;99.90;;;;;;5051334;28;20498;-57
2023/07/20 06:37:54;;;;;;;10.52;9.60;;;18.50;99.90;;;;;;5065621;28;20045;-56
2023/07/20 06:40:20;;;;;;;10.05;9.15;;;18.60;99.90;;;;;;5065543;28;20044;-60
2023/07/20 06:42:46;;;;;;;12.75;11.60;;;18.60;99.90;;;;;;5067848;28;20534;-59
2023/07/20 06:45:12;;;;;;;10.75;9.85;;;18.70;99.90;;;;;;5063418;28;20124;-59
2023/07/20 06:47:41;;;;;;;11.27;9.50;;;18.70;99.90;;;;;;5067748;28;20067;-59
2023/07/20 06:50:07;;;;;;;12.73;11.43;;;18.70;99.90;;;;;;5064570;28;20033;-59
2023/07/20 06:52:33;;;;;;;10.05;9.25;;;18.70;99.90;;;;;;5063311;28;20739;-59
2023/07/20 06:54:59;;;;;;;9.88;8.98;;;18.80;99.90;;;;;;5061480;28;20036;-59
2023/07/20 06:57:25;;;;;;;8.63;7.82;;;18.70;99.90;;;;;;5066472;28;20173;-59
2023/07/20 06:59:51;;;;;;;8.35;7.65;;;18.90;99.90;;;;;;5064855;28;20071;-59
2023/07/20 07:02:16;;;;;;;9.75;8.88;;;19.00;99.90;;;;;;5065964;28;20048;-59
2023/07/20 07:04:42;;;;;;;9.80;8.90;;;19.00;99.90;;;;;;5064858;28;20036;-59
2023/07/20 07:07:09;;;;;;;8.10;7.28;;;19.10;99.90;;;;;;5070306;28;20454;-59
2023/07/20 07:09:35;;;;;;;9.25;7.20;;;19.20;99.90;;;;;;5066920;28;20095;-59
2023/07/20 07:12:00;;;;;;;7.40;6.60;;;19.30;99.90;;;;;;5041869;28;20477;-59
2023/07/20 07:14:26;;;;;;;6.88;6.38;;;19.40;99.90;;;;;;5045835;28;20037;-59
2023/07/20 07:16:52;;;;;;;8.18;7.47;;;19.50;99.90;;;;;;5069611;28;20121;-59
2023/07/20 07:19:17;;;;;;;8.63;6.97;;;19.60;99.90;;;;;;5066498;28;20044;-59
2023/07/20 07:21:43;;;;;;;10.35;8.07;;;19.60;99.90;;;;;;5061897;28;20073;-59
2023/07/20 07:24:09;;;;;;;11.07;9.95;;;19.70;99.90;;;;;;5062799;28;20439;-59
2023/07/20 07:26:36;;;;;;;7.90;7.20;;;19.90;99.90;;;;;;5062451;28;20032;-62
2023/07/20 07:29:02;;;;;;;10.20;6.10;;;20.00;99.90;;;;;;5063684;28;20044;-60
2023/07/20 07:31:30;;;;;;;7.85;7.05;;;20.10;99.90;;;;;;5063720;28;20386;-59
2023/07/20 07:33:56;;;;;;;8.20;6.55;;;20.00;99.90;;;;;;5046976;28;20051;-60
2023/07/20 07:36:24;;;;;;;7.40;5.88;;;20.00;99.90;;;;;;5069513;28;20059;-59
2023/07/20 07:38:49;;;;;;;6.68;6.13;;;19.90;99.90;;;;;;5066137;28;20051;-61
2023/07/20 07:41:15;;;;;;;7.68;6.97;;;20.00;99.90;;;;;;5065293;28;20040;-61
2023/07/20 07:43:41;;;;;;;10.80;7.55;;;19.90;99.90;;;;;;5063290;28;21007;-60
2023/07/20 07:46:06;;;;;;;12.88;6.40;;;20.00;99.90;;;;;;5067279;28;20105;-60
2023/07/20 07:48:32;;;;;;;8.40;7.70;;;20.80;99.90;;;;;;5067369;28;20043;-61
2023/07/20 07:50:58;;;;;;;10.35;8.77;;;20.20;99.90;;;;;;5056204;28;20023;-60
2023/07/20 07:53:25;;;;;;;12.05;9.57;;;19.90;99.90;;;;;;5048156;28;20040;-60
2023/07/20 07:55:51;;;;;;;8.65;8.05;;;19.70;99.90;;;;;;5062860;28;20116;-60
2023/07/20 07:58:17;;;;;;;9.80;8.82;;;19.50;99.90;;;;;;5064953;28;20140;-59
2023/07/20 08:00:44;;;;;;;10.50;9.13;;;19.30;99.90;;;;;;5062055;28;20062;-59
2023/07/20 08:03:10;;;;;;;7.63;6.80;;;19.40;99.90;;;;;;5061806;28;20052;-60
2023/07/20 08:05:35;;;;;;;8.65;7.53;;;19.70;99.90;;;;;;5066653;28;20407;-59
2023/07/20 08:08:03;;;;;;;8.63;6.85;;;20.00;99.90;;;;;;5066590;28;20036;-59
2023/07/20 08:10:29;;;;;;;7.47;6.30;;;20.10;99.90;;;;;;5068170;28;20048;-59
2023/07/20 08:12:55;;;;;;;9.75;7.07;;;20.40;99.90;;;;;;5065870;28;20045;-58
2023/07/20 08:15:20;;;;;;;9.85;6.93;;;20.50;99.90;;;;;;5046305;28;20041;-59
2023/07/20 08:17:46;;;;;;;8.00;6.82;;;20.60;99.90;;;;;;5060134;28;20079;-59
2023/07/20 08:20:16;;;;;;;7.95;6.75;;;20.70;99.70;;;;;;5061254;28;20033;-59
2023/07/20 08:22:42;;;;;;;6.75;6.05;;;21.20;94.50;;;;;;5061857;28;20048;-58
2023/07/20 08:25:08;;;;;;;8.60;7.80;;;20.90;94.50;;;;;;5065038;28;20490;-58
2023/07/20 08:27:34;;;;;;;8.60;7.50;;;21.00;93.60;;;;;;5060977;28;20033;-59
2023/07/20 08:30:00;;;;;;;8.40;7.25;;;21.00;90.90;;;;;;5063462;28;20037;-59
2023/07/20 08:32:26;;;;;;;11.65;10.57;;;21.00;85.50;;;;;;5062627;28;20086;-59
2023/07/20 08:34:52;;;;;;;15.27;10.10;;;21.10;94.30;;;;;;5067299;28;20037;-59
2023/07/20 08:37:17;;;;;;;12.95;11.65;;;20.90;97.10;;;;;;5053396;28;20043;-59
2023/07/20 08:39:43;;;;;;;14.40;12.30;;;20.70;97.30;;;;;;5059698;28;20452;-59
2023/07/20 08:42:10;;;;;;;11.07;9.65;;;20.50;98.30;;;;;;5059777;28;20052;-59
2023/07/20 08:44:38;;;;;;;10.23;7.95;;;20.60;99.90;;;;;;5062056;28;20071;-59
2023/07/20 08:47:05;;;;;;;9.55;8.55;;;20.60;97.10;;;;;;5059766;28;20040;-59
2023/07/20 08:49:34;;;;;;;8.57;7.68;;;20.70;99.00;;;;;;5066007;28;20065;-59
2023/07/20 08:52:00;;;;;;;9.00;8.15;;;20.60;94.90;;;;;;5063423;28;20485;-60
2023/07/20 08:54:33;;;;;;;9.88;8.18;;;21.10;96.40;;;;;;5068887;28;20151;-59
2023/07/20 08:57:03;;;;;;;8.63;7.40;;;20.80;96.60;;;;;;5066639;28;20148;-59
2023/07/20 08:59:30;;;;;;;13.48;7.95;;;20.80;87.70;;;;;;5055352;28;20047;-59
2023/07/20 09:01:57;;;;;;;9.90;7.30;;;20.90;88.00;;;;;;5066607;28;20052;-59
2023/07/20 09:04:24;;;;;;;9.10;7.70;;;21.10;91.70;;;;;;5053874;28;20490;-59
2023/07/20 09:06:50;;;;;;;8.55;7.30;;;21.10;79.00;;;;;;5067426;28;20047;-59
2023/07/20 09:09:16;;;;;;;6.78;5.80;;;20.90;66.30;;;;;;5064294;28;20502;-60
2023/07/20 09:11:42;;;;;;;7.47;6.05;;;20.90;55.40;;;;;;5065901;28;20130;-59
2023/07/20 09:14:10;;;;;;;8.75;6.40;;;20.90;52.50;;;;;;5061542;28;20041;-59
2023/07/20 09:16:52;;;;;;;11.32;5.63;;;21.00;51.60;;;;;;5064289;28;20044;-59
2023/07/20 09:19:18;;;;;;;6.57;4.72;;;21.30;62.70;;;;;;5058699;28;20115;-59
2023/07/20 09:21:49;;;;;;;8.75;6.25;;;21.10;46.90;;;;;;5063860;28;20124;-59
2023/07/20 09:24:17;;;;;;;5.95;4.45;;;21.00;42.00;;;;;;5064865;28;20086;-59
2023/07/20 09:26:44;;;;;;;6.30;4.70;;;20.90;33.40;;;;;;5047861;28;20037;-59
2023/07/20 09:29:11;;;;;;;8.55;7.38;;;20.80;29.60;;;;;;5070379;28;20041;-59
2023/07/20 09:31:36;;;;;;;25.60;8.50;;;20.90;29.50;;;;;;5069475;28;20040;-60
2023/07/20 09:34:03;;;;;;;7.30;6.50;;;20.90;34.60;;;;;;5066081;28;20517;-59
2023/07/20 09:36:29;;;;;;;16.15;9.32;;;21.00;43.50;;;;;;5062186;28;20048;-59
2023/07/20 09:38:55;;;;;;;8.40;7.60;;;20.70;31.70;;;;;;5059091;28;20040;-59
2023/07/20 09:41:21;;;;;;;10.02;9.13;;;20.50;26.60;;;;;;5071883;28;20135;-59
2023/07/20 09:43:47;;;;;;;10.45;9.45;;;20.50;39.70;;;;;;5064119;28;20402;-59
2023/07/20 09:46:13;;;;;;;9.32;8.32;;;20.60;40.10;;;;;;5064151;28;20094;-59
2023/07/20 09:48:39;;;;;;;8.80;6.63;;;20.60;38.30;;;;;;5063802;28;20031;-59
2023/07/20 09:51:06;;;;;;;12.30;11.13;;;20.60;40.10;;;;;;5064506;28;20041;-59
2023/07/20 09:53:33;;;;;;;13.10;11.32;;;20.50;41.80;;;;;;5071160;28;20509;-59
2023/07/20 09:55:59;;;;;;;10.75;9.23;;;20.40;40.40;;;;;;5069188;28;20461;-59
2023/07/20 09:58:27;;;;;;;11.25;7.47;;;20.30;37.30;;;;;;5066538;28;20036;-59
2023/07/20 10:00:57;;;;;;;9.45;6.63;;;20.30;41.00;;;;;;5064930;28;20099;-59
2023/07/20 10:03:27;;;;;;;9.88;8.98;;;20.20;34.20;;;;;;5065660;28;20049;-59
2023/07/20 10:06:07;;;;;;;5.88;5.13;;;20.20;30.40;;;;;;5061148;28;20040;-59
2023/07/20 10:08:34;;;;;;;10.75;9.75;;;20.10;24.10;;;;;;5065270;28;20119;-59
2023/07/20 10:11:02;;;;;;;9.68;8.85;;;20.20;31.80;;;;;;5052864;28;20040;-59
2023/07/20 10:13:29;;;;;;;11.60;10.60;;;20.30;36.50;;;;;;5066530;28;20094;-59
2023/07/20 10:16:10;;;;;;;12.27;9.70;;;20.60;45.80;;;;;;5068867;28;20040;-59
2023/07/20 10:19:03;;;;;;;10.70;9.60;;;20.30;28.90;;;;;;5058937;28;20048;-59
2023/07/20 10:21:30;;;;;;;10.20;9.20;;;20.20;28.10;;;;;;5044868;28;20033;-59
2023/07/20 10:24:00;;;;;;;10.25;7.82;;;20.40;34.50;;;;;;5065941;28;20045;-58
2023/07/20 10:26:26;;;;;;;7.35;6.00;;;20.70;43.40;;;;;;5074762;28;20040;-60
2023/07/20 10:28:53;;;;;;;7.43;6.60;;;20.80;28.90;;;;;;5065936;28;20102;-60
2023/07/20 10:31:20;;;;;;;8.35;7.00;;;20.70;24.70;;;;;;5070238;28;20060;-60
2023/07/20 10:33:46;;;;;;;7.25;5.85;;;20.70;27.10;;;;;;5067364;28;20495;-59
2023/07/20 10:36:12;;;;;;;6.15;4.57;;;20.50;21.90;;;;;;5066148;28;20036;-59
2023/07/20 10:38:47;;;;;;;7.57;6.82;;;20.50;15.90;;;;;;5062739;28;20360;-59
2023/07/20 10:41:17;;;;;;;8.63;7.13;;;20.50;20.10;;;;;;5062763;28;20394;-59
2023/07/20 10:43:44;;;;;;;15.35;13.75;;;20.40;13.60;;;;;;5068906;28;20051;-60
2023/07/20 10:46:14;;;;;;;11.00;10.02;;;20.50;23.60;;;;;;5064010;28;20045;-59
2023/07/20 10:48:59;;;;;;;8.43;7.60;;;20.50;19.50;;;;;;5041436;28;20040;-59
2023/07/20 10:51:25;;;;;;;9.60;8.80;;;20.60;25.10;;;;;;5058749;28;20125;-59
2023/07/20 10:53:52;;;;;;;8.48;6.57;;;20.40;14.30;;;;;;5066493;28;20076;-59
2023/07/20 10:56:23;;;;;;;7.43;6.32;;;20.30;9.50;;;;;;5071506;28;20033;-59
2023/07/20 10:58:48;;;;;;;7.05;6.38;;;20.30;14.50;;;;;;5066973;28;20043;-60
2023/07/20 11:01:16;;;;;;;9.30;8.23;;;20.20;6.40;;;;;;5061748;28;20060;-59
2023/07/20 11:03:43;;;;;;;6.90;6.20;;;20.40;15.20;;;;;;5064303;28;20085;-59
2023/07/20 11:06:31;;;;;;;6.63;4.85;;;20.60;19.70;;;;;;5067245;28;20040;-62
2023/07/20 11:09:16;;;;;;;7.95;4.45;;;20.60;13.60;;;;;;5065920;28;20024;-59
2023/07/20 11:11:42;;;;;;;5.50;4.30;;;20.50;4.40;;;;;;5047444;28;20033;-59
2023/07/20 11:14:09;;;;;;;3.88;2.80;;;20.50;6.90;;;;;;5060446;28;20135;-59
2023/07/20 11:16:43;;;;;;;5.30;3.42;;;20.80;15.50;;;;;;5048935;28;20448;-59
2023/07/20 11:19:15;;;;;;;7.55;6.47;;;21.00;3.60;;;;;;5065511;28;20066;-59
2023/07/20 11:21:42;;;;;;;7.90;4.13;;;21.20;6.30;;;;;;5054276;28;20124;-59
2023/07/20 11:24:10;;;;;;;5.45;2.85;;;21.10;1.00;;;;;;5059727;28;20184;-59
2023/07/20 11:26:46;;;;;;;7.22;3.83;;;21.10;1.00;;;;;;5063172;28;20094;-59
2023/07/20 11:29:13;;;;;;;3.30;2.55;;;21.00;1.00;;;;;;5055170;28;20047;-59
2023/07/20 11:31:40;;;;;;;4.18;2.80;;;21.20;1.00;;;;;;5069938;28;20033;-59
2023/07/20 11:34:07;;;;;;;8.18;3.55;;;21.10;1.00;;;;;;5063581;28;20499;-59
2023/07/20 11:36:33;;;;;;;3.67;2.58;;;21.10;1.00;;;;;;5044891;28;20119;-59
2023/07/20 11:38:59;;;;;;;5.38;3.17;;;21.10;1.00;;;;;;5062198;28;20037;-59
2023/07/20 11:41:26;;;;;;;7.97;4.45;;;21.10;1.00;;;;;;5068013;28;20040;-59
2023/07/20 11:43:53;;;;;;;6.03;2.75;;;20.90;1.00;;;;;;5066752;28;20097;-59
2023/07/20 11:46:19;;;;;;;3.85;2.78;;;20.70;1.00;;;;;;5057194;28;20040;-59
2023/07/20 11:48:45;;;;;;;4.32;2.75;;;20.90;1.00;;;;;;5063404;28;20123;-59
2023/07/20 11:51:16;;;;;;;7.88;2.80;;;20.90;1.00;;;;;;5065052;28;20123;-59
2023/07/20 11:53:46;;;;;;;4.63;3.03;;;20.90;1.00;;;;;;5068160;28;20044;-60
2023/07/20 11:56:12;;;;;;;4.15;2.70;;;21.20;1.00;;;;;;5058535;28;20033;-60
2023/07/20 11:58:44;;;;;;;4.65;2.80;;;20.90;1.00;;;;;;5066486;28;20036;-59
2023/07/20 12:01:17;;;;;;;4.30;2.70;;;21.00;1.00;;;;;;5044837;28;20063;-59
2023/07/20 12:03:43;;;;;;;5.63;2.72;;;20.90;1.00;;;;;;5065581;28;20575;-59
2023/07/20 12:06:10;;;;;;;4.30;2.58;;;21.30;1.00;;;;;;5063869;28;20075;-59
2023/07/20 12:08:39;;;;;;;3.65;2.40;;;20.80;1.00;;;;;;5066040;28;20470;-59
2023/07/20 12:11:05;;;;;;;4.85;2.42;;;20.80;1.00;;;;;;5063848;28;20040;-59
2023/07/20 12:13:38;;;;;;;4.95;2.47;;;20.80;1.00;;;;;;5064631;28;20123;-59
2023/07/20 12:16:11;;;;;;;4.72;2.47;;;20.80;1.00;;;;;;5065316;28;20501;-59
2023/07/20 12:18:37;;;;;;;4.93;2.47;;;20.70;1.00;;;;;;5063059;28;20047;-60
2023/07/20 12:21:04;;;;;;;4.15;2.67;;;20.70;1.00;;;;;;5062323;28;20409;-59
2023/07/20 12:23:38;;;;;;;3.75;2.35;;;20.70;1.00;;;;;;5061398;28;20110;-59
2023/07/20 12:26:08;;;;;;;3.88;2.47;;;20.80;1.00;;;;;;5066801;28;20045;-59
2023/07/20 12:28:35;;;;;;;6.97;2.70;;;21.20;1.00;;;;;;5068187;28;20039;-60
2023/07/20 12:31:01;;;;;;;4.38;2.92;;;20.80;1.00;;;;;;5043873;28;20048;-59
2023/07/20 12:33:26;;;;;;;6.03;2.70;;;20.90;1.00;;;;;;5064465;28;20411;-59
2023/07/20 12:35:55;;;;;;;4.32;2.45;;;20.90;1.00;;;;;;5064952;28;20123;-59
2023/07/20 12:38:21;;;;;;;4.80;2.80;;;21.00;1.00;;;;;;5063693;28;20414;-59
2023/07/20 12:40:47;;;;;;;6.32;3.00;;;21.20;1.00;;;;;;5063805;28;20036;-59